createdAt,value
2019-02-08T00:00:50.609Z,35.93
2019-02-08T00:03:18.787Z,41.80
2019-02-08T00:05:47.003Z,38.60
2019-02-08T00:08:15.142Z,38.00
2019-02-08T00:10:43.353Z,35.87
2019-02-08T00:13:11.498Z,35.60
2019-02-08T00:15:39.727Z,37.37
2019-02-08T00:18:08.090Z,41.00
2019-02-08T00:20:36.247Z,35.67
2019-02-08T00:23:04.526Z,37.43
2019-02-08T00:25:32.962Z,37.60
2019-02-08T00:28:01.284Z,43.73
2019-02-08T00:30:29.818Z,38.37
2019-02-08T00:32:58.104Z,38.43
2019-02-08T00:35:26.523Z,45.23
2019-02-08T00:37:55.119Z,36.60
2019-02-08T00:40:26.694Z,38.17
2019-02-08T00:42:56.490Z,38.40
2019-02-08T00:45:24.629Z,39.63
2019-02-08T00:47:52.806Z,40.13
2019-02-08T00:50:27.553Z,37.47
2019-02-08T00:52:56.178Z,36.80
2019-02-08T00:55:24.321Z,39.60
2019-02-08T00:57:52.682Z,38.00
2019-02-08T01:00:21.986Z,37.80
2019-02-08T01:02:51.043Z,37.63
2019-02-08T01:05:20.460Z,35.80
2019-02-08T01:07:49.072Z,38.57
2019-02-08T01:10:18.783Z,37.60
2019-02-08T01:12:46.929Z,42.20
2019-02-08T01:15:16.257Z,39.73
2019-02-08T01:17:44.397Z,40.93
2019-02-08T01:20:13.913Z,36.73
2019-02-08T01:22:42.312Z,36.13
2019-02-08T01:25:12.058Z,38.90
2019-02-08T01:27:40.305Z,34.17
2019-02-08T01:30:10.137Z,39.50
2019-02-08T01:32:38.290Z,41.33
2019-02-08T01:35:07.698Z,35.97
2019-02-08T01:37:35.992Z,36.23
2019-02-08T01:40:05.704Z,35.63
2019-02-08T01:42:33.887Z,37.27
2019-02-08T01:45:02.114Z,38.57
2019-02-08T01:47:30.288Z,37.07
2019-02-08T01:49:58.417Z,41.73
2019-02-08T01:52:26.772Z,36.07
2019-02-08T01:54:54.948Z,38.17
2019-02-08T01:57:23.089Z,41.73
2019-02-08T01:59:51.250Z,35.70
2019-02-08T02:02:19.400Z,37.17
2019-02-08T02:04:47.534Z,37.10
2019-02-08T02:07:15.713Z,36.73
2019-02-08T02:09:43.854Z,38.23
2019-02-08T02:12:11.993Z,38.33
2019-02-08T02:14:40.207Z,33.17
2019-02-08T02:17:08.343Z,36.00
2019-02-08T02:19:36.477Z,33.00
2019-02-08T02:22:05.020Z,34.63
2019-02-08T02:24:33.177Z,37.53
2019-02-08T02:27:01.310Z,39.37
2019-02-08T02:29:29.741Z,32.83
2019-02-08T02:31:57.874Z,34.77
2019-02-08T02:34:26.035Z,32.70
2019-02-08T02:36:54.419Z,34.00
2019-02-08T02:39:22.569Z,32.87
2019-02-08T02:41:50.691Z,33.70
2019-02-08T02:44:18.901Z,32.67
2019-02-08T02:46:47.019Z,29.20
2019-02-08T02:49:15.196Z,29.73
2019-02-08T02:51:43.402Z,31.17
2019-02-08T02:54:11.581Z,27.63
2019-02-08T02:56:39.721Z,30.23
2019-02-08T02:59:08.376Z,31.93
2019-02-08T03:01:36.582Z,29.17
2019-02-08T03:04:04.915Z,28.70
2019-02-08T03:06:33.863Z,26.83
2019-02-08T03:09:01.997Z,27.90
2019-02-08T03:11:30.156Z,30.43
2019-02-08T03:13:58.346Z,27.70
2019-02-08T03:16:26.493Z,27.10
2019-02-08T03:18:54.677Z,27.10
2019-02-08T03:21:22.967Z,26.87
2019-02-08T03:23:51.118Z,29.03
2019-02-08T03:26:19.305Z,28.70
2019-02-08T03:28:47.573Z,31.10
2019-02-08T03:31:15.805Z,28.43
2019-02-08T03:33:43.937Z,28.60
2019-02-08T03:36:12.137Z,29.50
2019-02-08T03:38:40.275Z,32.53
2019-02-08T03:41:08.463Z,27.33
2019-02-08T03:43:36.728Z,33.53
2019-02-08T03:46:04.981Z,29.00
2019-02-08T03:48:33.126Z,30.60
2019-02-08T03:51:01.386Z,35.90
2019-02-08T03:53:29.526Z,35.67
2019-02-08T03:55:58.758Z,35.37
2019-02-08T03:58:27.607Z,28.97
2019-02-08T04:03:31.318Z,33.70
2019-02-08T04:05:59.500Z,33.40
2019-02-08T04:08:27.645Z,34.67
2019-02-08T04:10:55.914Z,34.97
2019-02-08T04:13:24.049Z,41.20
2019-02-08T04:15:52.186Z,39.43
2019-02-08T04:18:20.588Z,41.63
2019-02-08T04:20:48.721Z,38.17
2019-02-08T04:23:16.945Z,41.37
2019-02-08T04:25:45.427Z,32.30
2019-02-08T04:28:13.550Z,37.30
2019-02-08T04:30:41.741Z,40.70
2019-02-08T04:33:10.229Z,37.17
2019-02-08T04:35:38.389Z,44.97
2019-02-08T04:38:06.598Z,36.57
2019-02-08T04:43:02.125Z,37.70
2019-02-08T04:45:30.258Z,38.13
2019-02-08T04:47:58.407Z,37.47
2019-02-08T04:50:27.184Z,36.37
2019-02-08T04:52:55.693Z,38.87
2019-02-08T04:55:23.833Z,39.83
2019-02-08T04:57:52.240Z,46.40
2019-02-08T05:00:24.729Z,42.70
2019-02-08T05:02:52.953Z,43.43
2019-02-08T05:05:21.342Z,40.73
2019-02-08T05:07:49.607Z,38.97
2019-02-08T05:10:22.289Z,44.93
2019-02-08T05:12:50.671Z,34.87
2019-02-08T05:15:18.986Z,47.20
2019-02-08T05:18:06.568Z,39.83
2019-02-08T05:20:35.150Z,37.80
2019-02-08T05:23:03.312Z,34.97
2019-02-08T05:25:50.950Z,34.50
2019-02-08T05:28:19.215Z,42.50
2019-02-08T05:30:47.313Z,37.30
2019-02-08T05:33:15.677Z,36.03
2019-02-08T05:35:43.806Z,37.03
2019-02-08T05:38:11.990Z,38.83
2019-02-08T05:40:40.279Z,36.13
2019-02-08T05:43:08.426Z,33.30
2019-02-08T05:45:36.611Z,36.90
2019-02-08T05:48:04.757Z,35.43
2019-02-08T05:50:32.979Z,31.53
2019-02-08T05:53:01.140Z,34.97
2019-02-08T05:55:30.204Z,35.63
2019-02-08T05:57:58.513Z,36.60
2019-02-08T06:00:29.869Z,42.60
2019-02-08T06:02:58.077Z,33.90
2019-02-08T06:05:26.352Z,36.40
2019-02-08T06:07:54.524Z,37.30
2019-02-08T06:10:22.850Z,39.90
2019-02-08T06:12:51.029Z,37.50
2019-02-08T06:15:20.734Z,35.30
2019-02-08T06:17:48.898Z,38.23
2019-02-08T06:20:18.329Z,42.63
2019-02-08T06:22:46.652Z,45.00
2019-02-08T06:25:15.887Z,44.97
2019-02-08T06:27:44.315Z,37.03
2019-02-08T06:30:19.997Z,38.70
2019-02-08T06:32:48.097Z,36.20
2019-02-08T06:35:17.205Z,37.80
2019-02-08T06:37:45.534Z,35.83
2019-02-08T06:40:15.245Z,38.30
2019-02-08T06:42:43.392Z,43.97
2019-02-08T06:45:13.383Z,40.60
2019-02-08T06:47:41.497Z,38.40
2019-02-08T06:50:11.279Z,44.50
2019-02-08T06:52:39.607Z,44.10
2019-02-08T06:55:11.010Z,43.17
2019-02-08T06:57:39.816Z,38.10
2019-02-08T07:00:10.481Z,36.67
2019-02-08T07:02:42.776Z,38.83
2019-02-08T07:05:18.239Z,35.47
2019-02-08T07:07:48.033Z,34.80
2019-02-08T07:10:20.257Z,40.50
2019-02-08T07:13:04.882Z,33.73
2019-02-08T07:15:34.617Z,41.63
2019-02-08T07:18:04.338Z,43.23
2019-02-08T07:20:34.315Z,36.03
2019-02-08T07:23:12.777Z,36.83
2019-02-08T07:25:42.569Z,40.83
2019-02-08T07:28:18.310Z,35.63
2019-02-08T07:30:50.742Z,33.80
2019-02-08T07:33:23.043Z,35.80
2019-02-08T07:35:58.683Z,37.77
2019-02-08T07:38:37.223Z,43.30
2019-02-08T07:41:22.198Z,36.60
2019-02-08T07:44:04.405Z,36.40
2019-02-08T07:46:34.914Z,35.13
2019-02-08T07:49:04.714Z,34.30
2019-02-08T07:51:34.650Z,35.23
2019-02-08T07:54:07.067Z,36.70
2019-02-08T07:56:53.009Z,35.63
2019-02-08T07:59:23.633Z,36.27
2019-02-08T08:01:59.029Z,38.00
2019-02-08T08:04:45.153Z,38.07
2019-02-08T08:07:14.990Z,37.43
2019-02-08T08:09:44.849Z,35.93
2019-02-08T08:12:17.798Z,39.10
2019-02-08T08:14:56.645Z,36.60
2019-02-08T08:17:35.145Z,35.33
2019-02-08T08:20:12.053Z,35.87
2019-02-08T08:22:48.056Z,36.57
2019-02-08T08:25:34.159Z,32.80
2019-02-08T08:28:07.946Z,33.03
2019-02-08T08:30:38.153Z,33.43
2019-02-08T08:33:09.494Z,31.57
2019-02-08T08:35:42.122Z,32.17
2019-02-08T08:38:26.571Z,33.63
2019-02-08T08:40:56.290Z,31.60
2019-02-08T08:43:26.006Z,31.10
2019-02-08T08:46:12.315Z,31.57
2019-02-08T08:48:57.148Z,35.20
2019-02-08T08:51:29.583Z,31.47
2019-02-08T08:54:08.012Z,30.90
2019-02-08T08:56:37.967Z,30.50
2019-02-08T08:59:23.991Z,33.40
2019-02-08T09:02:02.131Z,30.27
2019-02-08T09:04:31.849Z,32.53
2019-02-08T09:07:16.410Z,32.50
2019-02-08T09:09:45.074Z,32.80
2019-02-08T09:12:17.330Z,30.73
2019-02-08T09:14:47.022Z,29.90
2019-02-08T09:17:19.369Z,31.53
2019-02-08T09:19:54.670Z,34.10
2019-02-08T09:22:24.341Z,30.93
2019-02-08T09:24:57.095Z,32.50
2019-02-08T09:27:26.809Z,32.77
2019-02-08T09:30:00.388Z,31.97
2019-02-08T09:32:30.343Z,32.43
2019-02-08T09:35:16.737Z,31.57
2019-02-08T09:37:46.409Z,33.83
2019-02-08T09:40:34.322Z,32.37
2019-02-08T09:43:06.898Z,32.30
2019-02-08T09:45:36.595Z,35.50
2019-02-08T09:48:06.318Z,35.70
2019-02-08T09:50:39.896Z,32.07
2019-02-08T09:53:26.246Z,35.30
2019-02-08T09:56:12.478Z,34.40
2019-02-08T09:58:47.823Z,31.93
2019-02-08T10:01:34.321Z,33.87
2019-02-08T10:04:20.653Z,31.17
2019-02-08T10:07:06.818Z,33.90
2019-02-08T10:09:36.555Z,32.60
2019-02-08T10:12:06.280Z,31.57
2019-02-08T10:14:35.992Z,31.83
2019-02-08T10:17:11.880Z,34.93
2019-02-08T10:19:58.173Z,33.17
2019-02-08T10:22:28.082Z,32.47
2019-02-08T10:25:14.082Z,33.77
2019-02-08T10:27:43.885Z,32.50
2019-02-08T10:30:13.600Z,37.07
2019-02-08T10:33:00.533Z,33.87
2019-02-08T10:35:30.202Z,31.50
2019-02-08T10:38:05.625Z,30.67
2019-02-08T10:40:35.319Z,32.13
2019-02-08T10:43:20.204Z,33.43
2019-02-08T10:45:49.874Z,32.90
2019-02-08T10:48:22.630Z,30.60
2019-02-08T10:51:08.534Z,30.17
2019-02-08T10:53:53.443Z,28.43
2019-02-08T10:56:23.478Z,28.50
2019-02-08T10:58:53.192Z,28.37
2019-02-08T11:01:25.878Z,29.27
2019-02-08T11:03:55.728Z,28.73
2019-02-08T11:06:42.028Z,32.60
2019-02-08T11:09:26.717Z,29.93
2019-02-08T11:12:08.538Z,29.97
2019-02-08T11:14:55.030Z,26.80
2019-02-08T11:17:36.807Z,28.10
2019-02-08T11:20:06.550Z,25.77
2019-02-08T11:22:34.710Z,28.80
2019-02-08T11:25:04.164Z,28.63
2019-02-08T11:27:32.354Z,28.43
2019-02-08T11:30:00.510Z,27.93
2019-02-08T11:32:42.860Z,27.27
2019-02-08T11:34:58.941Z,25.03
2019-02-08T11:37:27.086Z,24.00
2019-02-08T11:39:55.205Z,26.70
2019-02-08T11:42:23.406Z,24.93
2019-02-08T11:44:51.641Z,25.77
2019-02-08T11:47:19.820Z,26.73
2019-02-08T11:49:48.377Z,26.73
2019-02-08T11:52:16.517Z,27.43
2019-02-08T11:54:44.738Z,29.40
2019-02-08T11:57:12.922Z,30.87
2019-02-08T11:59:41.061Z,30.50
2019-02-08T12:02:09.211Z,32.13
2019-02-08T12:04:37.506Z,31.07
2019-02-08T12:07:05.714Z,33.10
2019-02-08T12:09:33.873Z,33.00
2019-02-08T12:12:02.136Z,32.93
2019-02-08T12:14:30.619Z,29.43
2019-02-08T12:16:58.819Z,31.67
2019-02-08T12:19:27.068Z,28.20
2019-02-08T12:21:56.115Z,29.30
2019-02-08T12:27:02.194Z,26.03
2019-02-08T12:29:30.404Z,25.93
2019-02-08T12:31:58.549Z,27.80
2019-02-08T12:34:26.878Z,22.30
2019-02-08T12:36:55.022Z,24.87
2019-02-08T12:39:23.182Z,24.53
2019-02-08T12:42:10.727Z,23.47
2019-02-08T12:47:52.154Z,21.17
2019-02-08T12:50:20.355Z,21.40
2019-02-08T12:52:48.511Z,21.33
2019-02-08T12:55:36.148Z,23.07
2019-02-08T12:58:04.359Z,22.33
2019-02-08T13:00:51.920Z,22.70
2019-02-08T13:03:20.189Z,21.57
2019-02-08T13:05:48.346Z,23.27
2019-02-08T13:08:16.568Z,27.50
2019-02-08T13:10:44.761Z,31.33
2019-02-08T13:13:12.890Z,29.87
2019-02-08T13:15:41.061Z,31.30
2019-02-08T13:18:09.205Z,32.17
2019-02-08T13:20:37.346Z,32.17
2019-02-08T13:23:05.608Z,29.97
2019-02-08T13:25:33.751Z,30.53
2019-02-08T13:28:01.886Z,29.47
2019-02-08T13:30:50.932Z,29.80
2019-02-08T13:33:38.414Z,28.23
2019-02-08T13:36:08.385Z,27.67
2019-02-08T13:38:36.522Z,25.30
2019-02-08T13:41:24.098Z,25.60
2019-02-08T13:43:52.290Z,30.00
2019-02-08T13:46:20.452Z,26.97
2019-02-08T13:48:48.758Z,24.13
2019-02-08T13:51:16.910Z,24.40
2019-02-08T13:53:45.022Z,24.27
2019-02-08T13:56:13.305Z,25.47
2019-02-08T13:58:41.451Z,25.73
2019-02-08T14:01:09.553Z,28.40
2019-02-08T14:03:37.723Z,24.17
2019-02-08T14:06:05.993Z,25.73
2019-02-08T14:08:34.137Z,22.83
2019-02-08T14:11:02.430Z,21.87
2019-02-08T14:13:30.526Z,23.47
2019-02-08T14:15:58.684Z,22.83
2019-02-08T14:18:26.808Z,23.03
2019-02-08T14:20:54.944Z,24.63
2019-02-08T14:23:23.029Z,24.17
2019-02-08T14:25:51.397Z,24.33
2019-02-08T14:28:19.541Z,24.07
2019-02-08T14:30:47.681Z,22.93
2019-02-08T14:33:16.174Z,22.00
2019-02-08T14:36:03.736Z,20.43
2019-02-08T14:41:32.374Z,18.17
2019-02-08T14:44:00.556Z,17.73
2019-02-08T14:46:28.697Z,17.47
2019-02-08T14:48:57.647Z,16.13
2019-02-08T14:51:25.840Z,17.80
2019-02-08T14:54:13.645Z,17.10
2019-02-08T14:56:41.790Z,17.70
2019-02-08T14:59:09.931Z,18.27
2019-02-08T15:01:38.090Z,19.57
2019-02-08T15:04:07.582Z,20.20
2019-02-08T15:06:36.054Z,19.10
2019-02-08T15:09:24.056Z,20.13
2019-02-08T15:12:17.669Z,19.60
2019-02-08T15:14:46.153Z,21.27
2019-02-08T15:17:33.630Z,20.70
2019-02-08T15:20:01.804Z,21.67
2019-02-08T15:22:29.951Z,21.60
2019-02-08T15:24:58.124Z,21.60
2019-02-08T15:27:26.290Z,21.90
2019-02-08T15:29:54.445Z,22.40
2019-02-08T15:32:22.590Z,20.97
2019-02-08T15:34:50.946Z,23.37
2019-02-08T15:37:19.798Z,21.20
2019-02-08T15:39:47.933Z,21.87
2019-02-08T15:42:16.295Z,22.53
2019-02-08T15:44:44.430Z,22.83
2019-02-08T15:47:12.651Z,21.60
2019-02-08T15:49:40.905Z,22.63
2019-02-08T15:52:09.038Z,20.40
2019-02-08T15:54:37.190Z,21.67
2019-02-08T15:57:05.466Z,19.27
2019-02-08T15:59:33.667Z,19.77
2019-02-08T16:02:21.342Z,19.67
2019-02-08T16:04:49.691Z,20.43
2019-02-08T16:07:17.826Z,19.80
2019-02-08T16:09:46.282Z,18.13
2019-02-08T16:12:14.460Z,18.60
2019-02-08T16:14:42.574Z,19.50
2019-02-08T16:17:11.141Z,19.00
2019-02-08T16:19:58.670Z,18.60
2019-02-08T16:22:27.030Z,18.93
2019-02-08T16:24:55.218Z,19.97
2019-02-08T16:27:23.366Z,19.33
2019-02-08T16:29:51.529Z,18.67
2019-02-08T16:32:19.716Z,20.37
2019-02-08T16:34:47.830Z,19.10
2019-02-08T16:37:16.098Z,19.50
2019-02-08T16:39:44.338Z,19.70
2019-02-08T16:42:12.535Z,21.37
2019-02-08T16:44:40.694Z,19.07
2019-02-08T16:47:08.914Z,19.43
2019-02-08T16:49:37.040Z,20.73
2019-02-08T16:52:05.402Z,23.57
2019-02-08T16:54:52.946Z,21.63
2019-02-08T16:57:21.309Z,20.50
2019-02-08T16:59:49.442Z,20.57
2019-02-08T17:02:36.938Z,20.47
2019-02-08T17:05:06.633Z,21.37
2019-02-08T17:07:34.756Z,21.03
2019-02-08T17:10:05.084Z,20.30
2019-02-08T17:12:33.196Z,22.00
2019-02-08T17:15:01.331Z,23.00
2019-02-08T17:17:29.561Z,20.63
2019-02-08T17:19:57.686Z,23.43
2019-02-08T17:22:25.837Z,23.37
2019-02-08T17:24:54.001Z,22.87
2019-02-08T17:27:22.173Z,22.33
2019-02-08T17:29:50.369Z,21.03
2019-02-08T17:32:18.494Z,19.97
2019-02-08T17:34:46.666Z,19.47
2019-02-08T17:37:14.770Z,19.77
2019-02-08T17:39:43.143Z,24.93
2019-02-08T17:42:11.245Z,21.17
2019-02-08T17:44:39.374Z,20.70
2019-02-08T17:47:07.518Z,21.73
2019-02-08T17:49:54.971Z,22.50
2019-02-08T17:52:23.402Z,23.57
2019-02-08T17:54:51.514Z,27.00
2019-02-08T17:57:19.626Z,22.80
2019-02-08T17:59:47.990Z,21.83
2019-02-08T18:02:16.134Z,25.50
2019-02-08T18:04:44.225Z,24.87
2019-02-08T18:07:12.481Z,22.33
2019-02-08T18:09:40.598Z,26.90
2019-02-08T18:12:08.714Z,23.57
2019-02-08T18:14:36.863Z,22.23
2019-02-08T18:17:04.974Z,26.23
2019-02-08T18:19:33.075Z,24.67
2019-02-08T18:22:01.338Z,26.40
2019-02-08T18:24:29.492Z,22.30
2019-02-08T18:26:57.610Z,21.57
2019-02-08T18:29:25.740Z,25.63
2019-02-08T18:31:53.878Z,23.03
2019-02-08T18:34:21.986Z,23.77
2019-02-08T18:36:50.225Z,22.10
2019-02-08T18:39:18.325Z,22.17
2019-02-08T18:41:46.441Z,21.60
2019-02-08T18:44:14.873Z,24.33
2019-02-08T18:46:42.994Z,24.70
2019-02-08T18:49:11.162Z,25.10
2019-02-08T18:51:39.589Z,28.07
2019-02-08T18:54:07.999Z,22.57
2019-02-08T18:56:36.145Z,22.00
2019-02-08T18:59:04.413Z,26.77
2019-02-08T19:01:32.568Z,28.17
2019-02-08T19:04:00.746Z,25.37
2019-02-08T19:06:29.014Z,26.80
2019-02-08T19:08:57.177Z,23.63
2019-02-08T19:11:25.290Z,25.37
2019-02-08T19:13:53.680Z,22.87
2019-02-08T19:16:21.914Z,26.50
2019-02-08T19:18:50.111Z,28.30
2019-02-08T19:21:18.410Z,26.73
2019-02-08T19:23:46.553Z,22.00
2019-02-08T19:26:14.654Z,25.90
2019-02-08T19:28:42.928Z,23.37
2019-02-08T19:31:11.309Z,26.67
2019-02-08T19:33:39.431Z,25.63
2019-02-08T19:36:07.703Z,25.07
2019-02-08T19:38:35.902Z,24.60
2019-02-08T19:41:04.110Z,21.20
2019-02-08T19:43:32.309Z,20.47
2019-02-08T19:46:00.518Z,23.03
2019-02-08T19:48:28.621Z,19.70
2019-02-08T19:50:56.875Z,18.43
2019-02-08T19:53:25.040Z,19.57
2019-02-08T19:55:53.184Z,21.50
2019-02-08T19:58:21.413Z,21.40
2019-02-08T20:00:49.542Z,21.70
2019-02-08T20:03:17.641Z,20.07
2019-02-08T20:05:46.021Z,22.20
2019-02-08T20:08:14.307Z,21.17
2019-02-08T20:10:43.569Z,20.23
2019-02-08T20:13:11.869Z,19.57
2019-02-08T20:15:39.988Z,18.87
2019-02-08T20:18:08.287Z,19.73
2019-02-08T20:20:36.588Z,18.03
2019-02-08T20:23:05.560Z,18.17
2019-02-08T20:25:34.378Z,21.53
2019-02-08T20:28:02.658Z,18.67
2019-02-08T20:30:31.306Z,17.77
2019-02-08T20:32:59.682Z,21.20
2019-02-08T20:35:28.257Z,22.17
2019-02-08T20:37:59.766Z,22.67
2019-02-08T20:40:29.423Z,23.27
2019-02-08T20:42:57.594Z,21.77
2019-02-08T20:45:40.533Z,18.90
2019-02-08T20:48:13.236Z,18.53
2019-02-08T20:50:41.397Z,17.57
2019-02-08T20:53:09.703Z,18.37
2019-02-08T20:55:38.153Z,18.73
2019-02-08T20:58:07.648Z,19.47
2019-02-08T21:00:37.274Z,20.10
2019-02-08T21:03:07.596Z,19.17
2019-02-08T21:05:35.771Z,18.17
2019-02-08T21:08:04.943Z,24.00
2019-02-08T21:10:33.170Z,21.27
2019-02-08T21:13:01.341Z,19.80
2019-02-08T21:15:29.470Z,21.30
2019-02-08T21:17:57.641Z,19.37
2019-02-08T21:20:25.816Z,19.60
2019-02-08T21:22:53.922Z,20.03
2019-02-08T21:25:23.660Z,20.57
2019-02-08T21:27:51.770Z,24.50
2019-02-08T21:30:19.886Z,21.17
2019-02-08T21:32:48.104Z,21.73
2019-02-08T21:35:17.511Z,19.37
2019-02-08T21:37:45.697Z,22.13
2019-02-08T21:40:15.710Z,19.73
2019-02-08T21:42:43.891Z,20.97
2019-02-08T21:45:16.470Z,20.77
2019-02-08T21:47:45.059Z,21.27
2019-02-08T21:50:15.115Z,20.27
2019-02-08T21:52:43.353Z,20.97
2019-02-08T21:55:13.185Z,19.93
2019-02-08T21:57:41.333Z,19.57
2019-02-08T22:00:14.005Z,23.13
2019-02-08T22:02:42.150Z,20.33
2019-02-08T22:05:10.462Z,23.27
2019-02-08T22:07:38.581Z,24.20
2019-02-08T22:10:08.557Z,20.43
2019-02-08T22:12:36.689Z,21.10
2019-02-08T22:15:09.272Z,27.00
2019-02-08T22:17:37.825Z,23.20
2019-02-08T22:20:07.483Z,21.80
2019-02-08T22:22:35.609Z,24.00
2019-02-08T22:25:05.614Z,23.57
2019-02-08T22:27:33.723Z,21.00
2019-02-08T22:30:01.838Z,21.90
2019-02-08T22:32:30.010Z,22.47
2019-02-08T22:34:58.181Z,26.80
2019-02-08T22:37:26.328Z,20.00
2019-02-08T22:39:54.477Z,18.97
2019-02-08T22:42:22.587Z,20.53
2019-02-08T22:44:50.694Z,22.80
2019-02-08T22:47:18.998Z,22.60
2019-02-08T22:49:47.161Z,21.93
2019-02-08T22:52:15.328Z,21.37
2019-02-08T22:54:43.754Z,19.03
2019-02-08T22:57:11.881Z,17.57
2019-02-08T22:59:39.990Z,18.17
2019-02-08T23:02:08.634Z,17.90
2019-02-08T23:04:36.738Z,17.90
2019-02-08T23:07:05.026Z,18.73
2019-02-08T23:09:33.332Z,19.83
2019-02-08T23:12:01.429Z,17.33
2019-02-08T23:14:29.533Z,16.93
2019-02-08T23:16:57.698Z,18.40
2019-02-08T23:19:25.878Z,17.90
2019-02-08T23:21:55.217Z,19.73
2019-02-08T23:24:23.679Z,20.60
2019-02-08T23:26:51.788Z,18.30
2019-02-08T23:29:19.863Z,17.87
2019-02-08T23:31:48.236Z,18.03
2019-02-08T23:34:16.329Z,16.57
2019-02-08T23:36:44.438Z,17.87
2019-02-08T23:39:12.992Z,19.10
2019-02-08T23:41:41.072Z,17.30
2019-02-08T23:44:09.166Z,17.10
2019-02-08T23:46:37.302Z,16.80
2019-02-08T23:49:05.390Z,16.57
2019-02-08T23:51:33.528Z,15.60
2019-02-08T23:54:01.762Z,18.00
2019-02-08T23:56:29.898Z,15.90
2019-02-08T23:58:58.146Z,19.00
